| time (UTC) | temp F | wind direction | speed knots | gust knots | rain 1hr in | rain 24hr in | rain mn in | humidity % | barometer mb |
| 20260506084058 | 54 | 270 | 8.7 | 20.0 | 0.00 | 0.00 | 0.00 | 85 | 1018.6 |
| 20260506083017 | 54 | 270 | 8.7 | 19.1 | 0.00 | 0.00 | 0.00 | 86 | 1018.5 |
| 20260506082017 | 54 | 270 | 8.7 | 19.1 | 0.00 | 0.00 | 0.00 | 87 | 1018.5 |
| 20260506081017 | 53 | 270 | 8.7 | 20.0 | 0.00 | 0.00 | 0.00 | 88 | 1018.4 |
| 20260506073038 | 52 | 270 | 7.8 | 22.6 | 0.00 | 0.00 | 0.00 | 90 | 1018.7 |
| 20260506072017 | 52 | 270 | 7.0 | 14.8 | 0.00 | 0.00 | 0.00 | 90 | 1018.8 |
| 20260506071017 | 52 | 270 | 7.0 | 13.9 | 0.00 | 0.00 | 0.00 | 91 | 1018.9 |
| 20260506062017 | 50 | 270 | 7.8 | 15.6 | 0.00 | 0.00 | 0.00 | 92 | 1018.9 |
| 20260506061017 | 50 | 270 | 7.0 | 14.8 | 0.00 | 0.00 | 0.00 | 92 | 1018.9 |
| 20260506051017 | 47 | 270 | 7.8 | 16.5 | 0.00 | 0.00 | 0.00 | 90 | 1019.0 |
| 20260506045038 | 47 | 270 | 7.8 | 15.6 | 0.00 | 0.00 | 0.00 | 88 | 1019.1 |
| 20260506044018 | 48 | 270 | 5.2 | 10.4 | 0.00 | 0.00 | 0.00 | 85 | 1019.2 |
| 20260506043017 | 49 | 270 | 7.0 | 13.9 | 0.00 | 0.00 | 0.00 | 83 | 1019.1 |
| 20260506042017 | 49 | 270 | 5.2 | 9.6 | 0.00 | 0.00 | 0.00 | 81 | 1019.0 |
| 20260506041017 | 49 | 270 | 5.2 | 11.3 | 0.00 | 0.00 | 0.00 | 80 | 1018.9 |
| 20260506040017 | 49 | 270 | 6.1 | 13.9 | 0.00 | 0.00 | 0.00 | 78 | 1018.8 |
| 20260506035037 | 49 | 270 | 6.1 | 13.9 | 0.00 | 0.00 | 0.00 | 77 | 1018.7 |
| 20260506034017 | 50 | 270 | 6.1 | 11.3 | 0.00 | 0.00 | 0.00 | 75 | 1018.6 |
| 20260506033017 | 50 | 270 | 6.1 | 13.0 | 0.00 | 0.00 | 0.00 | 75 | 1018.5 |
| 20260506032017 | 49 | 270 | 5.2 | 11.3 | 0.00 | 0.00 | 0.00 | 76 | 1018.4 |
| 20260506031037 | 49 | 270 | 4.3 | 10.4 | 0.00 | 0.00 | 0.00 | 76 | 1018.4 |
| 20260506030038 | 49 | 270 | 5.2 | 11.3 | 0.00 | 0.00 | 0.00 | 76 | 1018.4 |
| 20260506025037 | 49 | 270 | 6.1 | 13.0 | 0.00 | 0.00 | 0.00 | 76 | 1018.4 |
| 20260506024018 | 49 | 270 | 5.2 | 13.0 | 0.00 | 0.00 | 0.00 | 75 | 1018.2 |
| 20260506023037 | 49 | 270 | 6.1 | 13.9 | 0.00 | 0.00 | 0.00 | 74 | 1018.1 |
| 20260506022017 | 50 | 270 | 5.2 | 12.2 | 0.00 | 0.00 | 0.00 | 73 | 1018.1 |
| 20260506021018 | 50 | 270 | 7.0 | 13.0 | 0.00 | 0.00 | 0.00 | 73 | 1018.0 |
| 20260506020018 | 50 | 270 | 7.0 | 13.9 | 0.00 | 0.00 | 0.00 | 72 | 1017.9 |
| 20260506015017 | 50 | 270 | 7.0 | 18.2 | 0.00 | 0.00 | 0.00 | 73 | 1017.9 |
| 20260506014017 | 50 | 270 | 7.0 | 14.8 | 0.00 | 0.00 | 0.00 | 74 | 1017.8 |
| 20260506013037 | 49 | 270 | 5.2 | 11.3 | 0.00 | 0.00 | 0.00 | 75 | 1017.6 |
| 20260506012018 | 49 | 270 | 7.0 | 13.0 | 0.00 | 0.00 | 0.00 | 75 | 1017.6 |
| 20260506011058 | 49 | 270 | 6.1 | 14.8 | 0.00 | 0.00 | 0.00 | 76 | 1017.4 |
| 20260506010018 | 49 | 270 | 6.1 | 13.0 | 0.00 | 0.00 | 0.00 | 76 | 1017.4 |
| 20260506005017 | 49 | 270 | 6.1 | 16.5 | 0.00 | 0.00 | 0.00 | 76 | 1017.3 |
| 20260506004038 | 48 | 270 | 3.5 | 8.7 | 0.00 | 0.00 | 0.00 | 77 | 1017.1 |
| 20260506003037 | 48 | 270 | 2.6 | 8.7 | 0.00 | 0.00 | 0.00 | 77 | 1016.9 |
| 20260506002017 | 48 | 270 | 2.6 | 7.8 | 0.00 | 0.00 | 0.00 | 77 | 1016.7 |
| 20260506001017 | 48 | 270 | 5.2 | 9.6 | 0.00 | 0.00 | 0.00 | 77 | 1016.5 |
| 20260506000017 | 48 | 270 | 4.3 | 11.3 | 0.00 | 0.00 | 0.00 | 77 | 1016.3 |
| 20260505235018 | 48 | 270 | 3.5 | 7.8 | 0.00 | 0.00 | 0.00 | 76 | 1016.1 |
| 20260505234017 | 49 | 270 | 4.3 | 9.6 | 0.00 | 0.00 | 0.00 | 76 | 1016.0 |
| 20260505233158 | 49 | 90 | 4.3 | 12.2 | 0.00 | 0.00 | 0.00 | 75 | 1015.7 |
| 20260505232017 | 49 | 113 | 3.5 | 9.6 | 0.00 | 0.00 | 0.00 | 74 | 1015.5 |
| 20260505231038 | 50 | 90 | 2.6 | 5.2 | 0.00 | 0.00 | 0.00 | 73 | 1015.3 |
| 20260505230017 | 50 | 270 | 1.7 | 7.0 | 0.00 | 0.00 | 0.00 | 72 | 1015.1 |
| 20260505225017 | 51 | 90 | 3.5 | 9.6 | 0.00 | 0.00 | 0.00 | 71 | 1014.9 |
| 20260505224017 | 51 | 90 | 2.6 | 7.0 | 0.00 | 0.00 | 0.00 | 70 | 1014.7 |
| 20260505223017 | 52 | 90 | 2.6 | 8.7 | 0.00 | 0.00 | 0.00 | 69 | 1014.4 |
| 20260505222018 | 53 | 270 | 4.3 | 13.9 | 0.00 | 0.00 | 0.00 | 68 | 1014.4 |
| 20260505221017 | 53 | 270 | 4.3 | 13.0 | 0.00 | 0.00 | 0.00 | 68 | 1014.3 |
| 20260505220017 | 53 | 270 | 5.2 | 10.4 | 0.00 | 0.00 | 0.00 | 67 | 1014.1 |
| 20260505215017 | 54 | 270 | 5.2 | 10.4 | 0.00 | 0.00 | 0.00 | 66 | 1014.0 |
| 20260505214017 | 54 | 270 | 7.8 | 16.5 | 0.00 | 0.00 | 0.00 | 64 | 1013.7 |
| 20260505213017 | 55 | 270 | 6.1 | 15.6 | 0.00 | 0.00 | 0.00 | 62 | 1013.5 |
| 20260505212017 | 56 | 270 | 6.1 | 15.6 | 0.00 | 0.00 | 0.00 | 58 | 1013.3 |
| 20260505211017 | 57 | 270 | 7.0 | 18.2 | 0.00 | 0.00 | 0.00 | 54 | 1013.0 |
| 20260505210017 | 57 | 270 | 7.8 | 17.4 | 0.00 | 0.00 | 0.00 | 48 | 1013.2 |
| 20260505205017 | 58 | 270 | 5.2 | 13.0 | 0.00 | 0.00 | 0.00 | 45 | 1013.0 |
| 20260505204017 | 58 | 270 | 6.1 | 15.6 | 0.00 | 0.00 | 0.00 | 42 | 1012.8 |
| 20260505203017 | 59 | 270 | 6.1 | 14.8 | 0.00 | 0.00 | 0.00 | 41 | 1012.8 |
| 20260505202018 | 59 | 270 | 6.1 | 15.6 | 0.00 | 0.00 | 0.00 | 40 | 1012.6 |
| 20260505201038 | 59 | 270 | 6.1 | 15.6 | 0.00 | 0.00 | 0.00 | 39 | 1012.7 |
| 20260505200018 | 59 | 270 | 7.0 | 15.6 | 0.00 | 0.00 | 0.00 | 40 | 1012.6 |
| 20260505195017 | 58 | 270 | 8.7 | 20.0 | 0.00 | 0.00 | 0.00 | 40 | 1012.6 |
| 20260505194018 | 58 | 270 | 7.0 | 16.5 | 0.00 | 0.00 | 0.00 | 42 | 1012.4 |
| 20260505193037 | 58 | 270 | 7.8 | 15.6 | 0.00 | 0.00 | 0.00 | 42 | 1012.4 |
| 20260505192058 | 58 | 270 | 8.7 | 19.1 | 0.00 | 0.00 | 0.00 | 41 | 1012.2 |
| 20260505191057 | 58 | 270 | 7.8 | 14.8 | 0.00 | 0.00 | 0.00 | 42 | 1012.0 |
| 20260505190017 | 58 | 270 | 9.6 | 19.1 | 0.00 | 0.00 | 0.00 | 44 | 1011.8 |
| 20260505185017 | 58 | 270 | 10.4 | 20.9 | 0.00 | 0.00 | 0.00 | 42 | 1011.7 |
| 20260505184017 | 58 | 270 | 9.6 | 20.9 | 0.00 | 0.00 | 0.00 | 42 | 1011.7 |
| 20260505183018 | 59 | 270 | 7.8 | 17.4 | 0.00 | 0.00 | 0.00 | 44 | 1011.8 |
| 20260505182017 | 59 | 270 | 7.0 | 16.5 | 0.00 | 0.00 | 0.00 | 44 | 1011.7 |
| 20260505181017 | 58 | 270 | 8.7 | 18.2 | 0.00 | 0.00 | 0.00 | 43 | 1011.8 |
| 20260505180017 | 58 | 270 | 8.7 | 21.7 | 0.00 | 0.00 | 0.00 | 41 | 1011.8 |
| 20260505175017 | 58 | 270 | 9.6 | 22.6 | 0.00 | 0.00 | 0.00 | 40 | 1011.8 |
| 20260505174037 | 58 | 270 | 9.6 | 19.1 | 0.00 | 0.00 | 0.00 | 41 | 1011.7 |
| 20260505173017 | 59 | 270 | 6.1 | 15.6 | 0.00 | 0.00 | 0.00 | 43 | 1011.6 |
| 20260505172057 | 59 | 270 | 7.8 | 20.0 | 0.00 | 0.00 | 0.00 | 42 | 1011.5 |
| 20260505171017 | 59 | 270 | 8.7 | 17.4 | 0.00 | 0.00 | 0.00 | 42 | 1011.3 |
| 20260505170017 | 59 | 270 | 7.8 | 17.4 | 0.00 | 0.00 | 0.00 | 42 | 1011.2 |
| 20260505165017 | 59 | 270 | 7.0 | 25.2 | 0.00 | 0.00 | 0.00 | 40 | 1011.2 |
| 20260505164017 | 59 | 270 | 7.0 | 14.8 | 0.00 | 0.00 | 0.00 | 39 | 1011.1 |
| 20260505163017 | 59 | 270 | 7.8 | 18.2 | 0.00 | 0.00 | 0.00 | 39 | 1011.0 |
| 20260505162017 | 58 | 270 | 8.7 | 20.0 | 0.00 | 0.00 | 0.00 | 40 | 1010.9 |
| 20260505161017 | 59 | 270 | 6.1 | 13.9 | 0.00 | 0.00 | 0.00 | 41 | 1010.9 |
| 20260505153017 | 58 | 270 | 7.0 | 20.0 | 0.00 | 0.00 | 0.00 | 45 | 1010.6 |
| 20260505152018 | 57 | 270 | 7.0 | 15.6 | 0.00 | 0.00 | 0.00 | 46 | 1010.5 |
| 20260505151017 | 57 | 270 | 8.7 | 15.6 | 0.00 | 0.00 | 0.00 | 47 | 1010.3 |
| 20260505125017 | 53 | 270 | 5.2 | 13.9 | 0.00 | 0.01 | 0.00 | 69 | 1008.9 |
| 20260505124038 | 51 | 270 | 7.8 | 20.0 | 0.00 | 0.01 | 0.00 | 71 | 1008.8 |
| 20260505123037 | 51 | 293 | 5.2 | 13.0 | 0.00 | 0.01 | 0.00 | 73 | 1008.7 |
| 20260505122017 | 51 | 270 | 5.2 | 16.5 | 0.00 | 0.01 | 0.00 | 75 | 1008.5 |
| 20260505121017 | 50 | 270 | 6.1 | 13.9 | 0.00 | 0.01 | 0.00 | 75 | 1008.3 |
| 20260505120017 | 49 | 270 | 4.3 | 9.6 | 0.00 | 0.01 | 0.00 | 76 | 1008.2 |
| 20260505115037 | 49 | 270 | 5.2 | 12.2 | 0.00 | 0.01 | 0.00 | 77 | 1008.3 |
| 20260505114018 | 48 | 270 | 7.0 | 11.3 | 0.00 | 0.01 | 0.00 | 77 | 1008.4 |
| 20260505113017 | 48 | 270 | 4.3 | 10.4 | 0.00 | 0.01 | 0.00 | 77 | 1008.3 |
| 20260505112017 | 48 | 270 | 4.3 | 12.2 | 0.00 | 0.01 | 0.00 | 77 | 1008.1 |
| 20260505111017 | 48 | 270 | 3.5 | 10.4 | 0.00 | 0.01 | 0.00 | 77 | 1007.7 |
| 20260505102017 | 45 | 270 | 3.5 | 13.9 | 0.00 | 0.01 | 0.00 | 80 | 1006.8 |
| 20260505101017 | 45 | 270 | 5.2 | 10.4 | 0.00 | 0.01 | 0.00 | 81 | 1006.8 |
| 20260505100017 | 45 | 270 | 5.2 | 13.0 | 0.00 | 0.01 | 0.00 | 81 | 1006.7 |
| 20260505095017 | 44 | 113 | 4.3 | 13.9 | 0.00 | 0.01 | 0.00 | 81 | 1006.6 |
| 20260505094017 | 43 | 270 | 3.5 | 8.7 | 0.00 | 0.01 | 0.00 | 82 | 1006.5 |
| 20260505093017 | 43 | 90 | 3.5 | 11.3 | 0.00 | 0.01 | 0.00 | 83 | 1006.0 |
| 20260505092017 | 42 | 270 | 4.3 | 9.6 | 0.00 | 0.01 | 0.00 | 83 | 1006.0 |
| 20260505091017 | 41 | 68 | 4.3 | 10.4 | 0.00 | 0.01 | 0.00 | 84 | 1005.8 |
| 20260505090017 | 41 | 90 | 3.5 | 8.7 | 0.00 | 0.01 | 0.00 | 85 | 1005.7 |
| 20260505085017 | 40 | 293 | 3.5 | 7.8 | 0.00 | 0.01 | 0.00 | 86 | 1005.8 |